Time;durP1;ratioP1;P1;durP2;ratioP2;P2;SDS_P1;SDS_P2;PMS_P1;PMS_P2;Temp;Humidity;BMP_temperature;BMP_pressure;BME280_temperature;BME280_humidity;BME280_pressure;Samples;Min_cycle;Max_cycle;Signal;HPM_P1;HPM_P2
2021/08/14 00:00:02;;;;;;;2.70;2.50;;;;;;;22.80;87.79;98048.13;5021287;28;20191;-70
2021/08/14 00:02:29;;;;;;;2.60;2.40;;;;;;;22.83;87.81;98048.22;5017293;28;20229;-64
2021/08/14 00:04:55;;;;;;;2.70;2.50;;;;;;;22.85;88.12;98053.41;5022727;28;20239;-70
2021/08/14 00:07:22;;;;;;;2.40;2.30;;;;;;;22.82;87.93;98050.75;5020658;28;20225;-71
2021/08/14 00:09:49;;;;;;;2.63;2.43;;;;;;;22.84;88.16;98054.22;5025607;28;20264;-67
2021/08/14 00:12:16;;;;;;;2.30;2.10;;;;;;;22.84;88.08;98054.22;5017660;28;20237;-70
2021/08/14 00:14:42;;;;;;;3.40;2.80;;;;;;;22.81;88.94;98055.03;5016232;28;20256;-70
2021/08/14 00:17:09;;;;;;;2.73;2.53;;;;;;;22.73;88.46;98042.75;5016737;28;20203;-67
2021/08/14 00:19:36;;;;;;;2.60;2.33;;;;;;;22.79;88.98;98060.88;5015568;28;20248;-66
2021/08/14 00:22:02;;;;;;;2.53;2.33;;;;;;;22.76;89.14;98058.22;5026556;28;20650;-70
2021/08/14 00:24:29;;;;;;;2.40;2.20;;;;;;;22.76;89.40;98059.09;5018836;28;20253;-69
2021/08/14 00:26:55;;;;;;;2.60;2.40;;;;;;;22.76;89.52;98055.66;5024205;28;20635;-67
2021/08/14 00:29:22;;;;;;;2.60;2.40;;;;;;;22.75;89.61;98054.81;5019288;28;20268;-67
2021/08/14 00:31:49;;;;;;;2.83;2.53;;;;;;;22.74;89.77;98053.06;5019514;28;20638;-67
2021/08/14 00:34:15;;;;;;;2.20;2.10;;;;;;;22.60;89.74;98030.38;5020313;28;20257;-67
2021/08/14 00:36:42;;;;;;;2.50;2.30;;;;;;;22.75;89.92;98053.94;5014763;28;20253;-68
2021/08/14 00:39:08;;;;;;;2.60;2.40;;;;;;;22.73;89.97;98041.06;5024956;28;20645;-67
2021/08/14 00:41:35;;;;;;;2.50;2.30;;;;;;;22.73;89.95;98043.63;5016135;28;20622;-67
2021/08/14 00:44:02;;;;;;;2.50;2.30;;;;;;;22.75;89.95;98051.38;5021460;28;20250;-67
2021/08/14 00:46:29;;;;;;;2.63;2.43;;;;;;;22.66;90.10;98035.69;4999389;28;20627;-67
2021/08/14 00:48:57;;;;;;;2.70;2.50;;;;;;;22.76;90.09;98055.66;5014105;28;20226;-71
2021/08/14 00:51:23;;;;;;;2.63;2.43;;;;;;;22.75;90.51;98049.69;5022126;28;20225;-67
2021/08/14 00:53:50;;;;;;;2.67;2.47;;;;;;;21.85;90.33;97890.41;5015571;28;20771;-64
2021/08/14 00:56:20;;;;;;;2.83;2.33;;;;;;;22.75;90.25;98036.88;5024298;28;20337;-71
2021/08/14 00:58:49;;;;;;;2.77;2.57;;;;;;;22.76;90.13;98038.59;5019066;28;20226;-69
2021/08/14 01:01:16;;;;;;;2.50;2.30;;;;;;;22.72;90.40;98023.09;4994070;28;20202;-67
2021/08/14 01:03:46;;;;;;;2.40;2.20;;;;;;;22.77;90.26;98024.13;5006622;28;20317;-71
2021/08/14 01:06:16;;;;;;;2.50;2.30;;;;;;;22.78;90.37;98023.28;4996906;28;20309;-67
2021/08/14 01:08:42;;;;;;;2.67;2.47;;;;;;;22.77;90.36;98027.53;5021476;28;20312;-66
2021/08/14 01:11:10;;;;;;;2.70;2.50;;;;;;;22.79;90.42;98035.25;5016221;28;20212;-69
2021/08/14 01:13:37;;;;;;;2.80;2.60;;;;;;;22.79;90.79;98027.56;5008750;28;20648;-68
2021/08/14 01:16:05;;;;;;;2.53;2.33;;;;;;;22.78;90.41;98023.28;4998715;28;20290;-70
2021/08/14 01:18:32;;;;;;;3.00;2.40;;;;;;;22.76;90.53;98020.66;5015061;28;20210;-70
2021/08/14 01:20:58;;;;;;;2.40;2.20;;;;;;;22.78;90.33;98020.72;5014050;28;20234;-72
2021/08/14 01:23:25;;;;;;;2.83;2.27;;;;;;;22.78;90.37;98026.72;5017821;28;20194;-67
2021/08/14 01:26:21;;;;;;;2.50;2.30;;;;;;;22.79;90.62;98035.25;5019899;28;20280;-66
2021/08/14 01:28:47;;;;;;;2.20;2.10;;;;;;;22.80;90.70;98042.16;5009503;28;20257;-67
2021/08/14 01:31:14;;;;;;;2.80;2.50;;;;;;;22.74;90.72;98037.69;5020094;28;20246;-67
2021/08/14 01:33:42;;;;;;;4.07;2.50;;;;;;;22.60;90.77;98010.75;5015617;28;20584;-67
2021/08/14 01:36:14;;;;;;;2.33;2.20;;;;;;;22.72;90.81;98030.78;4999220;28;20241;-70
2021/08/14 01:38:47;;;;;;;2.50;2.30;;;;;;;22.79;90.78;98028.47;4997478;28;20234;-71
2021/08/14 01:41:14;;;;;;;2.73;2.53;;;;;;;22.66;90.91;98002.38;5016361;28;20237;-67
2021/08/14 01:44:10;;;;;;;2.40;2.20;;;;;;;22.79;90.95;98025.91;4981413;28;20222;-66
2021/08/14 01:46:41;;;;;;;2.23;2.13;;;;;;;22.52;91.05;97983.13;5012740;28;20252;-67
2021/08/14 01:49:07;;;;;;;2.70;2.50;;;;;;;22.54;90.84;97984.94;5000649;28;20959;-67
2021/08/14 01:51:35;;;;;;;4.10;2.40;;;;;;;22.75;91.05;98018.06;5000452;28;20229;-71
2021/08/14 01:54:04;;;;;;;2.80;2.57;;;;;;;22.60;90.98;97992.81;4997871;28;20253;-67
2021/08/14 01:56:31;;;;;;;3.17;2.77;;;;;;;22.68;91.12;98003.31;5013339;28;20238;-69
2021/08/14 01:58:57;;;;;;;2.50;2.30;;;;;;;22.75;90.96;98015.50;4996168;28;20222;-67
2021/08/14 02:01:24;;;;;;;2.20;2.10;;;;;;;22.69;91.17;98010.19;5001589;28;20612;-65
2021/08/14 02:03:51;;;;;;;3.10;2.30;;;;;;;22.80;91.58;98030.19;5014397;28;20236;-68
2021/08/14 02:06:18;;;;;;;3.13;2.70;;;;;;;22.78;91.25;98030.97;5025360;28;20197;-67
2021/08/14 02:08:45;;;;;;;2.83;2.63;;;;;;;22.64;91.22;98004.03;5013731;28;20249;-69
2021/08/14 02:11:17;;;;;;;2.50;2.30;;;;;;;22.75;91.41;98030.88;5017732;28;20226;-68
2021/08/14 02:13:44;;;;;;;2.43;2.23;;;;;;;22.62;91.61;98014.22;5013873;28;20257;-70
2021/08/14 02:16:10;;;;;;;4.43;2.13;;;;;;;22.49;91.90;97988.13;5014837;28;20230;-67
2021/08/14 02:18:37;;;;;;;2.67;2.47;;;;;;;22.72;91.92;98034.22;4991007;28;20408;-72
2021/08/14 02:21:04;;;;;;;2.60;2.40;;;;;;;22.71;92.16;98036.72;5014076;28;20244;-69
2021/08/14 02:23:31;;;;;;;3.47;2.27;;;;;;;22.62;92.07;98019.34;5018781;28;21033;-68
2021/08/14 02:25:58;;;;;;;2.60;2.40;;;;;;;22.70;92.10;98028.16;4997528;28;20465;-65
2021/08/14 02:28:24;;;;;;;2.60;2.40;;;;;;;22.57;91.90;98007.22;5020342;28;20235;-70
2021/08/14 02:30:51;;;;;;;3.07;2.53;;;;;;;22.56;92.22;98006.34;4999508;28;20377;-68
2021/08/14 02:33:17;;;;;;;2.50;2.30;;;;;;;22.71;92.23;98029.88;5014639;28;20212;-67
2021/08/14 02:35:44;;;;;;;2.47;2.27;;;;;;;22.65;92.25;98022.00;5020893;28;20229;-67
2021/08/14 02:38:11;;;;;;;2.37;2.17;;;;;;;22.72;92.46;98030.78;5021600;28;20256;-71
2021/08/14 02:40:37;;;;;;;2.50;2.30;;;;;;;22.73;92.21;98041.06;5015218;28;20247;-68
2021/08/14 02:43:04;;;;;;;2.30;2.10;;;;;;;22.65;92.26;98026.28;5014851;28;20222;-67
2021/08/14 02:45:31;;;;;;;2.27;2.07;;;;;;;22.63;92.36;98015.09;5013828;28;20217;-67
2021/08/14 02:48:01;;;;;;;2.60;2.40;;;;;;;22.69;92.21;98025.53;5018122;28;20230;-67
2021/08/14 02:50:28;;;;;;;2.70;2.50;;;;;;;22.73;92.23;98032.50;5017636;28;20762;-68
2021/08/14 02:52:54;;;;;;;2.80;2.60;;;;;;;22.75;92.97;98036.00;5023026;28;20233;-67
2021/08/14 02:55:21;;;;;;;2.33;2.20;;;;;;;22.75;92.54;98039.44;5015706;28;20253;-67
2021/08/14 02:57:47;;;;;;;2.47;2.27;;;;;;;22.73;91.97;98027.38;5022862;28;20244;-73
2021/08/14 03:00:14;;;;;;;2.60;2.40;;;;;;;22.76;92.23;98036.03;5015917;28;20225;-69
2021/08/14 03:02:41;;;;;;;2.47;2.27;;;;;;;22.67;91.81;98024.63;5013173;28;20562;-67
2021/08/14 03:05:08;;;;;;;2.60;2.40;;;;;;;22.77;92.09;98034.38;5025447;23;20253;-63
2021/08/14 03:07:35;;;;;;;2.20;2.10;;;;;;;22.77;92.22;98035.22;5006120;28;20234;-66
2021/08/14 03:10:02;;;;;;;2.13;2.03;;;;;;;22.77;92.34;98027.53;4995909;28;20707;-66
2021/08/14 03:12:28;;;;;;;2.60;2.40;;;;;;;22.77;92.33;98026.69;5000542;28;20533;-66
2021/08/14 03:14:56;;;;;;;4.00;2.27;;;;;;;22.77;92.55;98032.66;5005976;28;20227;-64
2021/08/14 03:17:23;;;;;;;2.30;2.20;;;;;;;22.78;92.38;98036.97;5004512;28;20199;-63
2021/08/14 03:19:50;;;;;;;3.00;2.50;;;;;;;22.78;92.38;98029.28;5006304;28;20237;-66
2021/08/14 03:22:16;;;;;;;2.27;2.07;;;;;;;22.78;92.32;98031.84;4997133;28;20297;-64
2021/08/14 03:24:43;;;;;;;2.47;2.27;;;;;;;22.78;92.33;98036.97;5005550;28;20252;-66
2021/08/14 03:27:09;;;;;;;2.20;2.10;;;;;;;22.78;92.39;98029.28;4995010;28;20238;-66
2021/08/14 03:29:36;;;;;;;2.40;2.20;;;;;;;22.78;92.32;98033.53;4998522;28;20698;-66
2021/08/14 03:32:03;;;;;;;2.23;2.03;;;;;;;22.79;92.47;98028.47;5004751;28;20230;-65
2021/08/14 03:34:29;;;;;;;2.10;2.00;;;;;;;22.78;92.43;98029.28;5008552;28;20214;-66
2021/08/14 03:36:56;;;;;;;2.10;2.00;;;;;;;22.78;92.50;98029.28;5009558;28;20230;-65
2021/08/14 03:39:22;;;;;;;3.47;2.53;;;;;;;22.78;92.51;98029.28;4999728;28;20231;-66
2021/08/14 03:41:49;;;;;;;2.60;2.40;;;;;;;22.77;92.50;98032.66;5007108;28;20245;-66
2021/08/14 03:44:15;;;;;;;2.10;2.00;;;;;;;22.78;92.55;98036.09;4998079;28;20261;-66
2021/08/14 03:46:42;;;;;;;2.30;2.10;;;;;;;22.79;92.54;98027.56;5009544;28;20237;-66
2021/08/14 03:49:09;;;;;;;2.17;2.07;;;;;;;22.78;92.36;98021.59;5007477;28;20238;-63
2021/08/14 03:51:35;;;;;;;2.17;2.07;;;;;;;22.79;92.62;98027.56;5005469;28;20234;-65
2021/08/14 03:54:02;;;;;;;2.50;2.30;;;;;;;22.79;92.68;98042.94;5008834;28;20304;-66
2021/08/14 03:56:28;;;;;;;2.37;2.17;;;;;;;22.79;92.68;98019.88;5004385;28;20238;-63
2021/08/14 03:58:55;;;;;;;2.50;2.30;;;;;;;22.78;92.64;98033.53;5006858;28;20241;-66
2021/08/14 04:01:21;;;;;;;2.57;2.37;;;;;;;22.76;92.97;98043.72;4998218;28;20231;-65
2021/08/14 04:03:48;;;;;;;2.53;2.33;;;;;;;22.75;92.76;98036.00;5008634;28;20226;-66
2021/08/14 04:06:15;;;;;;;2.40;2.20;;;;;;;22.74;92.87;98042.81;5008522;28;20233;-65
2021/08/14 04:08:41;;;;;;;2.40;2.20;;;;;;;22.72;93.56;98031.66;5005483;28;20294;-66
2021/08/14 04:11:08;;;;;;;2.50;2.30;;;;;;;22.73;93.12;98038.50;5003107;28;20266;-66
2021/08/14 04:13:34;;;;;;;4.03;2.40;;;;;;;22.72;93.25;98035.91;5006148;28;20260;-67
2021/08/14 04:16:01;;;;;;;2.83;2.50;;;;;;;22.71;93.32;98034.16;5008904;28;20293;-65
2021/08/14 04:18:28;;;;;;;4.07;2.60;;;;;;;22.71;93.52;98036.72;5003749;28;20199;-63
2021/08/14 04:20:55;;;;;;;2.60;2.40;;;;;;;22.71;93.36;98041.84;5004574;28;20254;-66
2021/08/14 04:23:21;;;;;;;2.20;2.10;;;;;;;22.71;93.46;98041.84;5007253;28;20249;-65
2021/08/14 04:25:48;;;;;;;2.17;2.00;;;;;;;22.70;93.48;98043.53;5007583;28;20301;-66
2021/08/14 04:28:15;;;;;;;2.30;2.10;;;;;;;22.71;93.64;98047.81;5001244;28;20289;-65
2021/08/14 04:30:41;;;;;;;2.90;2.23;;;;;;;22.71;93.68;98052.94;5008613;28;20682;-67
2021/08/14 04:33:08;;;;;;;2.50;2.30;;;;;;;22.72;93.51;98053.84;5002277;28;20237;-65
2021/08/14 04:35:35;;;;;;;2.60;2.40;;;;;;;22.72;93.53;98049.59;5007991;28;20257;-66
2021/08/14 04:38:01;;;;;;;2.57;2.33;;;;;;;22.72;93.58;98054.72;5003738;28;20238;-66
2021/08/14 04:40:28;;;;;;;2.50;2.30;;;;;;;22.73;93.49;98058.13;5003256;28;20191;-64
2021/08/14 04:42:55;;;;;;;2.40;2.30;;;;;;;22.74;93.28;98062.44;5003178;28;20206;-67
2021/08/14 04:45:23;;;;;;;2.60;2.40;;;;;;;22.73;93.54;98061.56;5005051;28;20265;-66
2021/08/14 04:47:51;;;;;;;2.80;2.60;;;;;;;22.74;93.53;98055.63;5008822;28;20241;-65
2021/08/14 04:50:17;;;;;;;2.50;2.30;;;;;;;22.75;93.45;98053.94;5007670;28;20229;-65
2021/08/14 04:52:44;;;;;;;2.40;2.20;;;;;;;22.70;93.60;98055.47;5005715;28;20640;-66
2021/08/14 04:55:11;;;;;;;2.80;2.60;;;;;;;22.76;93.46;98058.22;5002387;28;20345;-65
2021/08/14 04:57:37;;;;;;;2.93;2.30;;;;;;;22.75;93.52;98057.38;5006505;28;20241;-66
2021/08/14 05:00:04;;;;;;;2.53;2.33;;;;;;;22.77;93.48;98057.44;4998956;28;20234;-65
2021/08/14 05:02:31;;;;;;;2.57;2.37;;;;;;;22.77;93.43;98060.00;5001554;28;20425;-65
2021/08/14 05:04:57;;;;;;;2.60;2.40;;;;;;;22.77;93.50;98052.31;5001716;28;20304;-66
2021/08/14 05:07:24;;;;;;;2.60;2.40;;;;;;;22.77;93.51;98062.56;5004170;28;20636;-63
2021/08/14 05:09:50;;;;;;;2.50;2.30;;;;;;;22.77;93.49;98063.41;4995751;28;20319;-65
2021/08/14 05:12:17;;;;;;;2.47;2.27;;;;;;;22.78;93.55;98064.28;5005982;28;20250;-65
2021/08/14 05:14:44;;;;;;;2.43;2.23;;;;;;;22.78;93.55;98066.84;5008177;28;20399;-65
2021/08/14 05:17:10;;;;;;;2.40;2.20;;;;;;;22.78;93.49;98064.28;5005630;28;20234;-66
2021/08/14 05:19:37;;;;;;;2.60;2.40;;;;;;;22.78;93.32;98066.84;5001800;28;20622;-66
2021/08/14 05:22:04;;;;;;;2.57;2.37;;;;;;;22.78;93.49;98069.41;4999959;28;20245;-65
2021/08/14 05:24:30;;;;;;;2.23;2.13;;;;;;;22.78;93.69;98069.41;5006410;28;20779;-64
2021/08/14 05:26:57;;;;;;;2.40;2.20;;;;;;;22.78;93.53;98064.28;4998783;28;20230;-65
2021/08/14 05:29:23;;;;;;;2.50;2.30;;;;;;;22.79;93.49;98069.47;5005617;28;20223;-65
2021/08/14 05:31:50;;;;;;;2.47;2.27;;;;;;;22.79;93.46;98073.69;5007326;28;20671;-65
2021/08/14 05:34:16;;;;;;;2.60;2.40;;;;;;;22.74;93.53;98059.88;5005225;28;20258;-65
2021/08/14 05:36:43;;;;;;;2.57;2.37;;;;;;;22.79;93.62;98072.03;5006292;28;20237;-64
2021/08/14 05:39:09;;;;;;;2.10;2.00;;;;;;;22.79;93.62;98073.69;4998449;28;20285;-67
2021/08/14 05:41:41;;;;;;;2.53;2.33;;;;;;;22.79;93.37;98073.69;5000869;28;20202;-65
2021/08/14 05:44:08;;;;;;;2.50;2.30;;;;;;;22.79;93.77;98078.81;4996493;28;20297;-65
2021/08/14 05:46:35;;;;;;;2.30;2.10;;;;;;;22.79;93.54;98078.81;5006984;28;20248;-65
2021/08/14 05:49:01;;;;;;;2.17;2.07;;;;;;;22.79;93.68;98077.16;5001789;28;20211;-65
2021/08/14 05:51:28;;;;;;;2.60;2.40;;;;;;;22.78;93.54;98079.66;5005510;28;20696;-65
2021/08/14 05:54:13;;;;;;;3.13;2.30;;;;;;;22.76;93.50;98081.28;5004871;28;20221;-66
2021/08/14 05:56:40;;;;;;;2.47;2.27;;;;;;;22.75;93.52;98085.56;4998477;28;20730;-65
2021/08/14 05:59:07;;;;;;;2.40;2.30;;;;;;;22.74;93.94;98088.09;5005839;28;20582;-62
2021/08/14 06:01:33;;;;;;;3.43;2.33;;;;;;;22.73;94.10;98086.31;4997061;28;20226;-65
2021/08/14 06:04:00;;;;;;;2.50;2.30;;;;;;;22.72;94.21;98076.91;5005426;28;20317;-65
2021/08/14 06:06:27;;;;;;;2.20;2.10;;;;;;;22.71;94.12;98081.13;5005286;28;20625;-65
2021/08/14 06:08:53;;;;;;;2.53;2.33;;;;;;;22.71;94.26;98082.84;4998456;28;20225;-65
2021/08/14 06:11:20;;;;;;;2.60;2.40;;;;;;;22.70;94.41;98083.66;5008911;28;20245;-66
2021/08/14 06:13:46;;;;;;;2.43;2.23;;;;;;;22.70;94.28;98089.66;5009952;28;20328;-65
2021/08/14 06:16:14;;;;;;;2.70;2.50;;;;;;;22.70;94.73;98084.53;5006958;28;20639;-65
2021/08/14 06:18:42;;;;;;;2.10;2.00;;;;;;;22.71;94.42;98086.25;5009002;28;20406;-65
2021/08/14 06:21:09;;;;;;;2.33;2.23;;;;;;;22.72;94.38;98079.47;5009822;28;20217;-65
2021/08/14 06:23:35;;;;;;;2.33;2.20;;;;;;;22.72;94.34;98084.59;5009508;28;20289;-68
2021/08/14 06:26:02;;;;;;;2.47;2.27;;;;;;;22.73;94.07;98089.75;5005323;28;20237;-65
2021/08/14 06:28:28;;;;;;;2.77;2.57;;;;;;;22.73;94.31;98079.50;5008257;28;20226;-65
2021/08/14 06:30:55;;;;;;;2.30;2.20;;;;;;;22.74;94.56;98080.38;5006954;28;20305;-65
2021/08/14 06:33:22;;;;;;;2.40;2.20;;;;;;;22.74;94.15;98075.28;5006977;28;20209;-65
2021/08/14 06:35:48;;;;;;;2.33;2.13;;;;;;;21.70;94.17;97906.06;5007253;28;20218;-66
2021/08/14 06:38:15;;;;;;;2.60;2.40;;;;;;;22.75;94.32;98084.69;5008445;28;20226;-65
2021/08/14 06:40:42;;;;;;;2.47;2.27;;;;;;;22.75;94.38;98075.31;5006738;28;20294;-65
2021/08/14 06:43:08;;;;;;;2.40;2.20;;;;;;;22.75;94.32;98085.56;5005935;28;20664;-64
2021/08/14 06:45:35;;;;;;;2.50;2.30;;;;;;;22.75;94.29;98085.56;5007948;28;20304;-66
2021/08/14 06:48:02;;;;;;;2.53;2.33;;;;;;;22.76;94.36;98081.28;5009288;28;20205;-65
2021/08/14 06:50:28;;;;;;;2.60;2.40;;;;;;;22.76;94.21;98083.84;5008799;28;20304;-65
2021/08/14 06:52:55;;;;;;;2.43;2.10;;;;;;;22.76;94.21;98081.28;5008878;28;20202;-62
2021/08/14 06:55:21;;;;;;;2.50;2.30;;;;;;;22.76;94.30;98078.72;5008153;28;20218;-65
2021/08/14 06:57:48;;;;;;;2.77;2.37;;;;;;;22.77;94.18;98077.94;5004207;28;20286;-65
2021/08/14 07:00:15;;;;;;;2.30;2.20;;;;;;;22.72;94.21;98071.78;5006259;28;20198;-67
2021/08/14 07:02:42;;;;;;;2.30;2.20;;;;;;;22.78;94.19;98074.53;5007199;28;20288;-65
2021/08/14 07:05:10;;;;;;;3.30;2.30;;;;;;;22.78;94.29;98079.66;5005807;28;20241;-66
2021/08/14 07:07:36;;;;;;;2.30;2.13;;;;;;;22.78;94.29;98074.53;5005685;28;20256;-66
2021/08/14 07:10:04;;;;;;;3.27;2.17;;;;;;;22.74;94.27;98076.13;5009417;28;20561;-65
2021/08/14 07:12:31;;;;;;;2.43;2.10;;;;;;;22.78;94.46;98079.66;5010080;28;20571;-62
2021/08/14 07:14:59;;;;;;;2.40;2.20;;;;;;;22.78;94.37;98077.09;5012610;28;20305;-64
2021/08/14 07:17:26;;;;;;;2.40;2.10;;;;;;;22.78;94.36;98077.09;5012072;28;20201;-65
2021/08/14 07:19:53;;;;;;;2.27;2.17;;;;;;;22.79;94.40;98083.97;5013058;28;20199;-65
2021/08/14 07:22:19;;;;;;;2.50;2.30;;;;;;;22.78;94.45;98083.09;5010230;28;20254;-64
2021/08/14 07:24:46;;;;;;;2.43;2.23;;;;;;;22.78;94.64;98083.09;5012662;28;20651;-62
2021/08/14 07:27:12;;;;;;;2.63;2.43;;;;;;;22.78;94.69;98084.78;5009495;28;20641;-65
2021/08/14 07:29:39;;;;;;;2.70;2.50;;;;;;;22.79;94.65;98083.97;5011606;28;20664;-63
2021/08/14 07:32:06;;;;;;;2.80;2.50;;;;;;;22.79;94.60;98087.41;5011298;28;20640;-66
2021/08/14 07:34:32;;;;;;;3.10;2.80;;;;;;;22.78;94.73;98085.66;5012620;28;20715;-64
2021/08/14 07:36:59;;;;;;;2.80;2.43;;;;;;;22.79;94.17;98083.97;5011543;28;20241;-65
2021/08/14 07:39:25;;;;;;;3.47;2.57;;;;;;;22.79;94.05;98083.97;5011486;28;20607;-65
2021/08/14 07:41:52;;;;;;;2.90;2.70;;;;;;;22.79;94.02;98081.38;5012126;28;20676;-65
2021/08/14 07:44:19;;;;;;;2.93;2.73;;;;;;;22.77;93.68;98081.34;5008373;28;20265;-63
2021/08/14 07:46:47;;;;;;;3.60;3.30;;;;;;;22.77;93.67;98085.63;5004379;28;20750;-65
2021/08/14 07:49:14;;;;;;;3.00;2.80;;;;;;;22.76;93.42;98082.19;5007098;28;20488;-66
2021/08/14 07:51:41;;;;;;;4.53;3.23;;;;;;;22.75;92.99;98083.00;5006550;28;20261;-65
2021/08/14 07:54:07;;;;;;;3.60;3.30;;;;;;;22.76;92.96;98081.28;5009852;28;20250;-62
2021/08/14 07:56:34;;;;;;;3.90;3.40;;;;;;;22.75;92.92;98083.00;5008894;28;20653;-62
2021/08/14 07:59:01;;;;;;;3.43;3.13;;;;;;;22.74;92.59;98078.69;5011306;28;20198;-65
2021/08/14 08:01:27;;;;;;;3.30;3.00;;;;;;;22.75;92.41;98082.13;5009586;28;20241;-63
2021/08/14 08:03:55;;;;;;;3.40;3.00;;;;;;;22.74;92.25;98081.25;5010850;28;20272;-64
2021/08/14 08:06:21;;;;;;;3.33;3.03;;;;;;;22.75;92.68;98080.44;5008001;28;20249;-64
2021/08/14 08:08:48;;;;;;;4.13;3.00;;;;;;;22.75;92.32;98075.31;5009041;28;20624;-64
2021/08/14 08:11:15;;;;;;;3.77;2.97;;;;;;;22.75;92.20;98077.88;5011317;28;20308;-64
2021/08/14 08:13:41;;;;;;;4.77;3.30;;;;;;;22.76;92.53;98073.59;5010815;28;20707;-64
2021/08/14 08:16:08;;;;;;;3.10;2.80;;;;;;;22.76;91.72;98068.47;5005411;28;20202;-63
2021/08/14 08:18:35;;;;;;;2.83;2.63;;;;;;;22.76;92.14;98069.38;5008160;28;20797;-64
2021/08/14 08:21:01;;;;;;;3.87;2.70;;;;;;;22.78;91.67;98064.28;5010697;28;20226;-65
2021/08/14 08:23:28;;;;;;;4.00;3.23;;;;;;;22.78;91.99;98064.28;5007993;28;20261;-65
2021/08/14 08:25:54;;;;;;;3.27;2.97;;;;;;;22.79;92.16;98063.44;5001850;28;20262;-66
2021/08/14 08:28:21;;;;;;;3.63;3.33;;;;;;;22.79;92.13;98059.22;5002753;28;20645;-62
2021/08/14 08:30:49;;;;;;;3.83;3.10;;;;;;;22.79;92.27;98048.06;5006548;28;20225;-65
2021/08/14 08:33:16;;;;;;;3.40;3.10;;;;;;;22.80;92.12;98054.97;5009287;28;20194;-62
2021/08/14 08:35:42;;;;;;;5.80;3.27;;;;;;;22.81;91.99;98043.88;5000257;28;20305;-64
2021/08/14 08:38:09;;;;;;;3.40;3.03;;;;;;;22.81;91.75;98043.88;5004277;28;20195;-62
2021/08/14 08:40:40;;;;;;;3.40;3.10;;;;;;;22.82;91.66;98043.06;5007884;28;20631;-66
2021/08/14 08:43:07;;;;;;;4.30;3.13;;;;;;;22.81;91.33;98047.31;5004841;28;20635;-66
2021/08/14 08:45:33;;;;;;;3.30;3.00;;;;;;;22.82;90.92;98043.94;5001990;28;20250;-66
2021/08/14 08:48:04;;;;;;;3.43;3.03;;;;;;;22.82;90.98;98043.94;5007173;28;20719;-66
2021/08/14 08:50:31;;;;;;;3.43;3.03;;;;;;;22.82;90.84;98048.19;5001774;28;20249;-65
2021/08/14 08:52:57;;;;;;;4.13;3.40;;;;;;;22.83;90.69;98043.09;5007933;28;20285;-65
2021/08/14 08:55:24;;;;;;;3.20;2.90;;;;;;;22.83;90.49;98048.22;4997489;28;20253;-65
2021/08/14 08:57:51;;;;;;;3.20;2.87;;;;;;;22.84;90.32;98043.97;5007944;28;20652;-66
2021/08/14 09:00:17;;;;;;;3.40;3.10;;;;;;;22.85;90.14;98049.16;5001085;28;20712;-65
2021/08/14 09:02:45;;;;;;;3.00;2.80;;;;;;;22.85;90.03;98045.72;5002653;28;20668;-65
2021/08/14 09:05:20;;;;;;;3.87;3.30;;;;;;;22.68;89.85;98006.72;5026972;23;20230;-67
2021/08/14 09:07:48;;;;;;;3.13;2.93;;;;;;;22.76;89.71;98023.22;5009256;28;20206;-67
2021/08/14 09:10:22;;;;;;;3.23;2.93;;;;;;;22.83;89.50;98032.00;4987868;28;20194;-67
2021/08/14 09:12:49;;;;;;;4.73;2.97;;;;;;;22.85;89.22;98043.16;4986886;28;20317;-67
2021/08/14 09:15:30;;;;;;;3.53;3.20;;;;;;;22.86;89.20;98042.34;5005436;28;20231;-67
2021/08/14 09:18:01;;;;;;;3.50;3.20;;;;;;;22.86;89.07;98037.22;4997616;28;20206;-67
2021/08/14 09:20:28;;;;;;;5.60;3.30;;;;;;;22.84;88.83;98033.72;5003865;28;20286;-66
2021/08/14 09:23:03;;;;;;;3.37;3.07;;;;;;;22.78;88.67;98016.47;4999829;28;20294;-70
2021/08/14 09:25:39;;;;;;;3.40;3.20;;;;;;;22.86;88.39;98029.53;4998269;28;20214;-64
2021/08/14 09:28:06;;;;;;;3.23;2.77;;;;;;;22.86;88.56;98027.81;5000358;28;20301;-67
2021/08/14 09:30:52;;;;;;;3.33;3.03;;;;;;;22.86;88.31;98026.97;5005089;28;20282;-65
2021/08/14 09:33:28;;;;;;;3.00;2.80;;;;;;;22.80;88.14;98014.81;5005237;28;20250;-69
2021/08/14 09:35:59;;;;;;;3.47;3.17;;;;;;;22.83;88.09;98014.06;5004426;28;20222;-66
2021/08/14 09:38:41;;;;;;;3.33;3.03;;;;;;;22.87;87.92;98023.56;4999796;28;20281;-66
2021/08/14 09:41:09;;;;;;;4.40;3.13;;;;;;;22.86;87.57;98016.72;5005182;28;20230;-68
2021/08/14 09:43:35;;;;;;;3.43;3.13;;;;;;;22.86;86.92;98024.41;4993869;28;20226;-68
2021/08/14 09:46:02;;;;;;;3.50;3.20;;;;;;;22.86;89.74;98020.13;5003422;28;20222;-69
2021/08/14 09:48:29;;;;;;;3.93;3.30;;;;;;;22.85;89.96;98017.53;4999411;28;20273;-75
2021/08/14 09:50:55;;;;;;;3.03;2.83;;;;;;;22.86;89.07;98011.59;5007969;28;20289;-69
2021/08/14 09:53:23;;;;;;;4.50;3.70;;;;;;;22.78;87.93;97992.53;5010010;28;20230;-67
2021/08/14 09:56:03;;;;;;;7.23;3.20;;;;;;;22.85;87.13;98010.72;4990129;28;20259;-66
2021/08/14 09:58:29;;;;;;;3.37;3.07;;;;;;;22.71;86.26;97982.91;4996318;28;20719;-67
2021/08/14 10:00:58;;;;;;;5.97;3.30;;;;;;;22.74;86.36;97985.56;4992409;28;20619;-67
2021/08/14 10:03:24;;;;;;;4.33;2.83;;;;;;;22.72;86.20;97971.84;4995735;28;20297;-68
2021/08/14 10:05:51;;;;;;;2.90;2.70;;;;;;;22.84;86.79;97993.59;4996928;28;20300;-67
2021/08/14 10:08:18;;;;;;;3.40;3.10;;;;;;;22.86;87.05;97991.09;5004183;28;20286;-69
2021/08/14 10:10:45;;;;;;;3.40;3.07;;;;;;;22.86;87.68;97986.81;4998889;28;20213;-70
2021/08/14 10:13:14;;;;;;;4.30;3.00;;;;;;;22.73;87.58;97964.19;5000448;28;20205;-70
2021/08/14 10:15:41;;;;;;;3.67;3.17;;;;;;;22.80;87.14;97970.41;4987075;28;20231;-67
2021/08/14 10:18:08;;;;;;;3.93;3.00;;;;;;;22.87;87.00;97982.56;5000444;28;20748;-68
2021/08/14 10:20:34;;;;;;;3.50;2.87;;;;;;;22.78;86.75;97957.53;5000012;28;20234;-70
2021/08/14 10:23:03;;;;;;;4.67;3.10;;;;;;;22.79;86.71;97960.94;5000367;28;20237;-67
2021/08/14 10:25:30;;;;;;;3.20;2.90;;;;;;;22.68;86.75;97935.00;4999816;28;20617;-70
2021/08/14 10:28:01;;;;;;;3.27;2.97;;;;;;;22.84;86.51;97967.09;4973532;28;20285;-71
2021/08/14 10:30:41;;;;;;;3.43;2.93;;;;;;;22.89;86.33;97975.81;5003972;28;20203;-68
2021/08/14 10:33:08;;;;;;;2.97;2.73;;;;;;;22.87;86.37;97970.63;5003435;28;20233;-68
2021/08/14 10:35:36;;;;;;;3.30;3.00;;;;;;;22.88;86.19;97971.47;5003445;28;20250;-67
2021/08/14 10:38:03;;;;;;;3.63;3.27;;;;;;;22.81;85.98;97957.63;5000218;28;20283;-67
2021/08/14 10:41:05;;;;;;;3.47;2.87;;;;;;;22.88;85.78;97969.81;5000480;28;20237;-68
2021/08/14 10:43:53;;;;;;;3.53;3.20;;;;;;;22.89;85.62;97968.97;4989639;28;20194;-67
2021/08/14 10:46:42;;;;;;;3.03;2.83;;;;;;;22.89;85.41;97961.28;5009827;28;20265;-66
2021/08/14 10:49:14;;;;;;;3.57;3.00;;;;;;;22.61;85.37;97912.56;5004427;28;20752;-70
2021/08/14 10:51:47;;;;;;;4.53;2.83;;;;;;;22.89;85.18;97961.28;5004938;28;20268;-70
2021/08/14 10:54:14;;;;;;;3.50;3.20;;;;;;;22.89;85.02;97960.44;5007188;28;20210;-68
2021/08/14 10:56:51;;;;;;;3.43;3.13;;;;;;;22.88;85.10;97954.41;5001955;28;20233;-66
2021/08/14 10:59:37;;;;;;;3.67;3.00;;;;;;;22.89;84.81;97951.03;5006496;28;20206;-67
2021/08/14 11:02:06;;;;;;;4.23;3.03;;;;;;;22.89;84.84;97951.03;5005187;28;20233;-67
2021/08/14 11:04:44;;;;;;;3.00;2.70;;;;;;;22.89;84.67;97948.47;5010409;28;20236;-70
2021/08/14 11:07:16;;;;;;;3.10;2.80;;;;;;;22.91;84.63;97933.13;5012226;28;20194;-68
2021/08/14 11:09:52;;;;;;;3.20;2.90;;;;;;;22.88;84.53;97925.34;5009455;28;20260;-68
2021/08/14 11:12:35;;;;;;;3.40;3.10;;;;;;;22.90;84.60;97927.16;5009698;28;20305;-67
2021/08/14 11:15:14;;;;;;;3.80;2.60;;;;;;;22.90;84.52;97924.59;5010139;28;20229;-67
2021/08/14 11:17:41;;;;;;;3.23;2.93;;;;;;;22.90;84.41;97927.16;5011888;28;20214;-69
2021/08/14 11:20:20;;;;;;;3.00;2.70;;;;;;;22.91;84.35;97925.44;5011751;28;20222;-67
2021/08/14 11:22:47;;;;;;;2.80;2.60;;;;;;;22.81;84.10;97911.50;5012220;28;20622;-68
2021/08/14 11:25:21;;;;;;;3.07;2.77;;;;;;;22.92;83.92;97924.63;5011069;28;20221;-68
2021/08/14 11:28:00;;;;;;;3.10;2.80;;;;;;;22.92;83.90;97919.50;5010253;28;20295;-67
2021/08/14 11:30:47;;;;;;;3.07;2.87;;;;;;;22.91;83.74;97920.31;5008450;28;20284;-66
2021/08/14 11:33:15;;;;;;;3.90;2.80;;;;;;;22.87;83.22;97910.81;5008975;28;20312;-69
2021/08/14 11:35:42;;;;;;;3.90;2.83;;;;;;;22.89;82.90;97915.16;5008828;28;20214;-69
2021/08/14 11:38:10;;;;;;;6.60;3.00;;;;;;;22.79;83.00;97889.19;5009645;28;20631;-67